sensor_id;sensor_type;location;lat;lon;timestamp;temperature;humidity
16485;DHT22;8353;47.856;12.344;2022-11-20T00:01:35;8.20;99.90
16485;DHT22;8353;47.856;12.344;2022-11-20T00:04:06;8.20;99.90
16485;DHT22;8353;47.856;12.344;2022-11-20T00:06:36;8.20;99.90
16485;DHT22;8353;47.856;12.344;2022-11-20T00:09:09;8.20;99.90
16485;DHT22;8353;47.856;12.344;2022-11-20T00:11:41;8.30;99.90
16485;DHT22;8353;47.856;12.344;2022-11-20T00:14:12;8.20;99.90
16485;DHT22;8353;47.856;12.344;2022-11-20T00:16:43;8.10;99.90
16485;DHT22;8353;47.856;12.344;2022-11-20T00:19:14;8.10;99.90
16485;DHT22;8353;47.856;12.344;2022-11-20T00:21:45;8.20;99.90
16485;DHT22;8353;47.856;12.344;2022-11-20T00:24:15;8.20;99.90
16485;DHT22;8353;47.856;12.344;2022-11-20T00:26:47;8.20;99.90
16485;DHT22;8353;47.856;12.344;2022-11-20T00:29:17;8.20;99.90
16485;DHT22;8353;47.856;12.344;2022-11-20T00:31:48;8.20;99.90
16485;DHT22;8353;47.856;12.344;2022-11-20T00:34:18;8.20;99.90
16485;DHT22;8353;47.856;12.344;2022-11-20T00:36:49;8.20;99.90
16485;DHT22;8353;47.856;12.344;2022-11-20T00:39:19;8.10;99.90
16485;DHT22;8353;47.856;12.344;2022-11-20T00:41:51;8.10;99.90
16485;DHT22;8353;47.856;12.344;2022-11-20T00:44:21;8.20;99.90
16485;DHT22;8353;47.856;12.344;2022-11-20T00:46:52;8.10;99.90
16485;DHT22;8353;47.856;12.344;2022-11-20T00:49:23;8.00;99.90
16485;DHT22;8353;47.856;12.344;2022-11-20T00:51:54;8.00;99.90
16485;DHT22;8353;47.856;12.344;2022-11-20T00:54:24;8.00;99.90
16485;DHT22;8353;47.856;12.344;2022-11-20T00:56:56;8.00;99.90
16485;DHT22;8353;47.856;12.344;2022-11-20T00:59:27;8.00;99.90
16485;DHT22;8353;47.856;12.344;2022-11-20T01:01:57;8.00;99.90
16485;DHT22;8353;47.856;12.344;2022-11-20T01:04:28;8.00;99.90
16485;DHT22;8353;47.856;12.344;2022-11-20T01:06:58;8.00;99.90
16485;DHT22;8353;47.856;12.344;2022-11-20T01:09:29;8.00;99.90
16485;DHT22;8353;47.856;12.344;2022-11-20T01:12:01;8.00;99.90
16485;DHT22;8353;47.856;12.344;2022-11-20T01:14:31;7.90;99.90
16485;DHT22;8353;47.856;12.344;2022-11-20T01:17:02;7.90;99.90
16485;DHT22;8353;47.856;12.344;2022-11-20T01:19:33;8.00;99.90
16485;DHT22;8353;47.856;12.344;2022-11-20T01:22:03;8.00;99.90
16485;DHT22;8353;47.856;12.344;2022-11-20T01:24:34;8.00;99.90
16485;DHT22;8353;47.856;12.344;2022-11-20T01:27:05;7.90;99.90
16485;DHT22;8353;47.856;12.344;2022-11-20T01:29:36;8.00;99.90
16485;DHT22;8353;47.856;12.344;2022-11-20T01:32:06;8.00;99.90
16485;DHT22;8353;47.856;12.344;2022-11-20T01:34:36;8.00;99.90
16485;DHT22;8353;47.856;12.344;2022-11-20T01:37:07;8.00;99.90
16485;DHT22;8353;47.856;12.344;2022-11-20T01:39:37;8.00;99.90
16485;DHT22;8353;47.856;12.344;2022-11-20T01:42:09;8.00;99.90
16485;DHT22;8353;47.856;12.344;2022-11-20T01:44:58;8.00;99.90
16485;DHT22;8353;47.856;12.344;2022-11-20T01:47:33;7.90;99.90
16485;DHT22;8353;47.856;12.344;2022-11-20T01:50:14;7.90;99.90
16485;DHT22;8353;47.856;12.344;2022-11-20T01:52:50;8.00;99.90
16485;DHT22;8353;47.856;12.344;2022-11-20T01:55:26;8.00;99.90
16485;DHT22;8353;47.856;12.344;2022-11-20T01:58:03;8.00;99.90
16485;DHT22;8353;47.856;12.344;2022-11-20T02:00:35;8.10;99.90
16485;DHT22;8353;47.856;12.344;2022-11-20T02:03:08;8.10;99.90
16485;DHT22;8353;47.856;12.344;2022-11-20T02:05:43;8.10;99.90
16485;DHT22;8353;47.856;12.344;2022-11-20T02:08:15;8.00;99.90
16485;DHT22;8353;47.856;12.344;2022-11-20T02:10:46;8.10;99.90
16485;DHT22;8353;47.856;12.344;2022-11-20T02:13:18;8.00;99.90
16485;DHT22;8353;47.856;12.344;2022-11-20T02:16:10;8.00;99.90
16485;DHT22;8353;47.856;12.344;2022-11-20T02:18:42;8.10;99.90
16485;DHT22;8353;47.856;12.344;2022-11-20T02:21:21;8.00;99.90
16485;DHT22;8353;47.856;12.344;2022-11-20T02:24:04;8.00;99.90
16485;DHT22;8353;47.856;12.344;2022-11-20T02:26:40;8.00;99.90
16485;DHT22;8353;47.856;12.344;2022-11-20T02:29:10;8.00;99.90
16485;DHT22;8353;47.856;12.344;2022-11-20T02:31:44;8.00;99.90
16485;DHT22;8353;47.856;12.344;2022-11-20T02:34:15;7.90;99.90
16485;DHT22;8353;47.856;12.344;2022-11-20T02:36:46;7.90;99.90
16485;DHT22;8353;47.856;12.344;2022-11-20T02:39:20;7.90;99.90
16485;DHT22;8353;47.856;12.344;2022-11-20T02:41:53;7.90;99.90
16485;DHT22;8353;47.856;12.344;2022-11-20T02:44:23;7.90;99.90
16485;DHT22;8353;47.856;12.344;2022-11-20T02:46:56;7.90;99.90
16485;DHT22;8353;47.856;12.344;2022-11-20T02:49:26;7.80;99.90
16485;DHT22;8353;47.856;12.344;2022-11-20T02:51:57;7.90;99.90
16485;DHT22;8353;47.856;12.344;2022-11-20T02:54:29;7.90;99.90
16485;DHT22;8353;47.856;12.344;2022-11-20T02:57:00;7.90;99.90
16485;DHT22;8353;47.856;12.344;2022-11-20T02:59:30;7.90;99.90
16485;DHT22;8353;47.856;12.344;2022-11-20T03:02:00;7.90;99.90
16485;DHT22;8353;47.856;12.344;2022-11-20T03:04:32;7.90;99.90
16485;DHT22;8353;47.856;12.344;2022-11-20T03:07:03;8.00;99.90
16485;DHT22;8353;47.856;12.344;2022-11-20T03:09:35;8.00;99.90
16485;DHT22;8353;47.856;12.344;2022-11-20T03:12:06;8.00;99.90
16485;DHT22;8353;47.856;12.344;2022-11-20T03:14:36;8.00;99.90
16485;DHT22;8353;47.856;12.344;2022-11-20T03:17:07;7.90;99.90
16485;DHT22;8353;47.856;12.344;2022-11-20T03:19:38;7.90;99.90
16485;DHT22;8353;47.856;12.344;2022-11-20T03:22:09;8.00;99.90
16485;DHT22;8353;47.856;12.344;2022-11-20T03:24:40;8.00;99.90
16485;DHT22;8353;47.856;12.344;2022-11-20T03:27:11;7.90;99.90
16485;DHT22;8353;47.856;12.344;2022-11-20T03:29:41;8.00;99.90
16485;DHT22;8353;47.856;12.344;2022-11-20T03:32:12;8.00;99.90
16485;DHT22;8353;47.856;12.344;2022-11-20T03:34:42;7.90;99.90
16485;DHT22;8353;47.856;12.344;2022-11-20T03:37:13;8.00;99.90
16485;DHT22;8353;47.856;12.344;2022-11-20T03:39:45;8.00;99.90
16485;DHT22;8353;47.856;12.344;2022-11-20T03:42:15;8.00;99.90
16485;DHT22;8353;47.856;12.344;2022-11-20T03:44:59;7.90;99.90
16485;DHT22;8353;47.856;12.344;2022-11-20T03:47:30;7.90;99.90
16485;DHT22;8353;47.856;12.344;2022-11-20T03:50:00;7.90;99.90
16485;DHT22;8353;47.856;12.344;2022-11-20T03:52:31;8.00;99.90
16485;DHT22;8353;47.856;12.344;2022-11-20T03:55:03;7.90;99.90
16485;DHT22;8353;47.856;12.344;2022-11-20T03:57:33;7.90;99.90
16485;DHT22;8353;47.856;12.344;2022-11-20T04:00:03;7.90;99.90
16485;DHT22;8353;47.856;12.344;2022-11-20T04:02:34;7.80;99.90
16485;DHT22;8353;47.856;12.344;2022-11-20T04:05:05;7.80;99.90
16485;DHT22;8353;47.856;12.344;2022-11-20T04:07:35;7.80;99.90
16485;DHT22;8353;47.856;12.344;2022-11-20T04:10:08;7.80;99.90
16485;DHT22;8353;47.856;12.344;2022-11-20T04:12:38;7.80;99.90
16485;DHT22;8353;47.856;12.344;2022-11-20T04:15:09;7.80;99.90
16485;DHT22;8353;47.856;12.344;2022-11-20T04:17:40;7.80;99.90
16485;DHT22;8353;47.856;12.344;2022-11-20T04:20:10;7.80;99.90
16485;DHT22;8353;47.856;12.344;2022-11-20T04:22:41;7.80;99.90
16485;DHT22;8353;47.856;12.344;2022-11-20T04:25:13;7.90;99.90
16485;DHT22;8353;47.856;12.344;2022-11-20T04:27:43;7.80;99.90
16485;DHT22;8353;47.856;12.344;2022-11-20T04:30:14;7.80;99.90
16485;DHT22;8353;47.856;12.344;2022-11-20T04:32:45;7.80;99.90
16485;DHT22;8353;47.856;12.344;2022-11-20T04:35:15;7.80;99.90
16485;DHT22;8353;47.856;12.344;2022-11-20T04:37:46;7.80;99.90
16485;DHT22;8353;47.856;12.344;2022-11-20T04:40:18;7.80;99.90
16485;DHT22;8353;47.856;12.344;2022-11-20T04:42:48;7.90;99.90
16485;DHT22;8353;47.856;12.344;2022-11-20T04:45:19;7.80;99.90
16485;DHT22;8353;47.856;12.344;2022-11-20T04:47:49;7.80;99.90
16485;DHT22;8353;47.856;12.344;2022-11-20T04:50:20;7.80;99.90
16485;DHT22;8353;47.856;12.344;2022-11-20T04:52:50;7.80;99.90
16485;DHT22;8353;47.856;12.344;2022-11-20T04:55:22;7.80;99.90
16485;DHT22;8353;47.856;12.344;2022-11-20T04:57:52;7.80;99.90
16485;DHT22;8353;47.856;12.344;2022-11-20T05:00:23;7.80;99.90
16485;DHT22;8353;47.856;12.344;2022-11-20T05:02:53;7.80;99.90
16485;DHT22;8353;47.856;12.344;2022-11-20T05:05:24;7.80;99.90
16485;DHT22;8353;47.856;12.344;2022-11-20T05:07:56;7.80;99.90
16485;DHT22;8353;47.856;12.344;2022-11-20T05:10:28;7.80;99.90
16485;DHT22;8353;47.856;12.344;2022-11-20T05:12:59;7.80;99.90
16485;DHT22;8353;47.856;12.344;2022-11-20T05:15:29;7.80;99.90
16485;DHT22;8353;47.856;12.344;2022-11-20T05:18:00;7.80;99.90
16485;DHT22;8353;47.856;12.344;2022-11-20T05:20:30;7.90;99.90
16485;DHT22;8353;47.856;12.344;2022-11-20T05:23:01;7.80;99.90
16485;DHT22;8353;47.856;12.344;2022-11-20T05:25:33;7.70;99.90
16485;DHT22;8353;47.856;12.344;2022-11-20T05:28:03;7.70;99.90
16485;DHT22;8353;47.856;12.344;2022-11-20T05:30:34;7.80;99.90
16485;DHT22;8353;47.856;12.344;2022-11-20T05:33:04;7.70;99.90
16485;DHT22;8353;47.856;12.344;2022-11-20T05:35:35;7.70;99.90
16485;DHT22;8353;47.856;12.344;2022-11-20T05:38:05;7.80;99.90
16485;DHT22;8353;47.856;12.344;2022-11-20T05:40:37;7.90;99.90
16485;DHT22;8353;47.856;12.344;2022-11-20T05:43:07;7.90;99.90
16485;DHT22;8353;47.856;12.344;2022-11-20T05:45:38;7.90;99.90
16485;DHT22;8353;47.856;12.344;2022-11-20T05:48:08;7.80;99.90
16485;DHT22;8353;47.856;12.344;2022-11-20T05:50:38;7.80;99.90
16485;DHT22;8353;47.856;12.344;2022-11-20T05:53:09;7.80;99.90
16485;DHT22;8353;47.856;12.344;2022-11-20T05:55:41;7.80;99.90
16485;DHT22;8353;47.856;12.344;2022-11-20T05:58:11;7.90;99.90
16485;DHT22;8353;47.856;12.344;2022-11-20T06:00:42;7.90;99.90
16485;DHT22;8353;47.856;12.344;2022-11-20T06:03:12;7.90;99.90
16485;DHT22;8353;47.856;12.344;2022-11-20T06:05:43;8.00;99.90
16485;DHT22;8353;47.856;12.344;2022-11-20T06:08:13;8.00;99.90
16485;DHT22;8353;47.856;12.344;2022-11-20T06:10:45;8.00;99.90
16485;DHT22;8353;47.856;12.344;2022-11-20T06:13:15;8.00;99.90
16485;DHT22;8353;47.856;12.344;2022-11-20T06:15:48;7.90;99.90
16485;DHT22;8353;47.856;12.344;2022-11-20T06:18:19;8.00;99.90
16485;DHT22;8353;47.856;12.344;2022-11-20T06:20:50;8.00;99.90
16485;DHT22;8353;47.856;12.344;2022-11-20T06:23:30;8.00;99.90
16485;DHT22;8353;47.856;12.344;2022-11-20T06:26:03;7.90;99.90
16485;DHT22;8353;47.856;12.344;2022-11-20T06:28:34;7.90;99.90
16485;DHT22;8353;47.856;12.344;2022-11-20T06:31:06;7.90;99.90
16485;DHT22;8353;47.856;12.344;2022-11-20T06:33:37;7.90;99.90
16485;DHT22;8353;47.856;12.344;2022-11-20T06:36:09;7.90;99.90
16485;DHT22;8353;47.856;12.344;2022-11-20T06:38:40;7.90;99.90
16485;DHT22;8353;47.856;12.344;2022-11-20T06:41:14;8.00;99.90
16485;DHT22;8353;47.856;12.344;2022-11-20T06:43:45;7.90;99.90
16485;DHT22;8353;47.856;12.344;2022-11-20T06:46:17;7.90;99.90
16485;DHT22;8353;47.856;12.344;2022-11-20T06:48:48;7.90;99.90
16485;DHT22;8353;47.856;12.344;2022-11-20T06:51:18;7.90;99.90
16485;DHT22;8353;47.856;12.344;2022-11-20T06:53:50;7.90;99.90
16485;DHT22;8353;47.856;12.344;2022-11-20T06:56:21;7.90;99.90
16485;DHT22;8353;47.856;12.344;2022-11-20T06:58:52;7.90;99.90
16485;DHT22;8353;47.856;12.344;2022-11-20T07:01:22;8.00;99.90
16485;DHT22;8353;47.856;12.344;2022-11-20T07:03:53;8.00;99.90
16485;DHT22;8353;47.856;12.344;2022-11-20T07:06:23;7.90;99.90
16485;DHT22;8353;47.856;12.344;2022-11-20T07:08:54;7.90;99.90
16485;DHT22;8353;47.856;12.344;2022-11-20T07:11:26;7.90;99.90
16485;DHT22;8353;47.856;12.344;2022-11-20T07:13:57;7.90;99.90
16485;DHT22;8353;47.856;12.344;2022-11-20T07:16:27;7.90;99.90
16485;DHT22;8353;47.856;12.344;2022-11-20T07:18:57;7.90;99.90
16485;DHT22;8353;47.856;12.344;2022-11-20T07:21:28;7.90;99.90
16485;DHT22;8353;47.856;12.344;2022-11-20T07:23:59;8.00;99.90
16485;DHT22;8353;47.856;12.344;2022-11-20T07:26:31;7.90;99.90
16485;DHT22;8353;47.856;12.344;2022-11-20T07:29:01;7.80;99.90
16485;DHT22;8353;47.856;12.344;2022-11-20T07:31:31;7.80;99.90
16485;DHT22;8353;47.856;12.344;2022-11-20T07:34:13;7.90;99.90
16485;DHT22;8353;47.856;12.344;2022-11-20T07:36:44;7.90;99.90
16485;DHT22;8353;47.856;12.344;2022-11-20T07:39:14;7.90;99.90
16485;DHT22;8353;47.856;12.344;2022-11-20T07:41:46;7.90;99.90
16485;DHT22;8353;47.856;12.344;2022-11-20T07:44:16;7.90;99.90
16485;DHT22;8353;47.856;12.344;2022-11-20T07:46:47;7.90;99.90
16485;DHT22;8353;47.856;12.344;2022-11-20T07:49:18;7.90;99.90
16485;DHT22;8353;47.856;12.344;2022-11-20T07:51:53;8.00;99.90
16485;DHT22;8353;47.856;12.344;2022-11-20T07:54:23;8.00;99.90
16485;DHT22;8353;47.856;12.344;2022-11-20T07:56:55;8.00;99.90
16485;DHT22;8353;47.856;12.344;2022-11-20T07:59:26;8.00;99.90
16485;DHT22;8353;47.856;12.344;2022-11-20T08:01:56;8.00;99.90
16485;DHT22;8353;47.856;12.344;2022-11-20T08:04:27;7.90;99.90
16485;DHT22;8353;47.856;12.344;2022-11-20T08:06:57;7.90;99.90
16485;DHT22;8353;47.856;12.344;2022-11-20T08:09:27;7.90;99.90
16485;DHT22;8353;47.856;12.344;2022-11-20T08:11:59;7.90;99.90
16485;DHT22;8353;47.856;12.344;2022-11-20T08:14:47;7.80;99.90
16485;DHT22;8353;47.856;12.344;2022-11-20T08:17:18;7.90;99.90
16485;DHT22;8353;47.856;12.344;2022-11-20T08:19:48;7.80;99.90
16485;DHT22;8353;47.856;12.344;2022-11-20T08:22:18;7.90;99.90
16485;DHT22;8353;47.856;12.344;2022-11-20T08:24:49;8.00;99.90
16485;DHT22;8353;47.856;12.344;2022-11-20T08:27:21;8.20;99.90
16485;DHT22;8353;47.856;12.344;2022-11-20T08:29:52;8.20;99.90
16485;DHT22;8353;47.856;12.344;2022-11-20T08:32:22;8.30;99.90
16485;DHT22;8353;47.856;12.344;2022-11-20T08:34:53;8.40;99.90
16485;DHT22;8353;47.856;12.344;2022-11-20T08:37:23;8.40;99.90
16485;DHT22;8353;47.856;12.344;2022-11-20T08:39:54;8.50;99.90
16485;DHT22;8353;47.856;12.344;2022-11-20T08:42:27;8.70;99.90
16485;DHT22;8353;47.856;12.344;2022-11-20T08:44:57;8.70;99.90
16485;DHT22;8353;47.856;12.344;2022-11-20T08:47:27;8.70;99.90
16485;DHT22;8353;47.856;12.344;2022-11-20T08:49:58;8.80;99.90
16485;DHT22;8353;47.856;12.344;2022-11-20T08:52:28;8.80;99.90
16485;DHT22;8353;47.856;12.344;2022-11-20T08:54:59;8.90;99.90
16485;DHT22;8353;47.856;12.344;2022-11-20T08:57:32;9.00;99.90
16485;DHT22;8353;47.856;12.344;2022-11-20T09:00:03;9.20;99.90
16485;DHT22;8353;47.856;12.344;2022-11-20T09:02:34;9.20;99.90
16485;DHT22;8353;47.856;12.344;2022-11-20T09:05:05;9.30;99.90
16485;DHT22;8353;47.856;12.344;2022-11-20T09:07:36;9.30;99.90
16485;DHT22;8353;47.856;12.344;2022-11-20T09:10:06;9.30;99.90
16485;DHT22;8353;47.856;12.344;2022-11-20T09:12:39;9.40;99.90
16485;DHT22;8353;47.856;12.344;2022-11-20T09:15:11;9.70;99.90
16485;DHT22;8353;47.856;12.344;2022-11-20T09:17:42;9.80;99.90
16485;DHT22;8353;47.856;12.344;2022-11-20T09:20:13;9.70;99.90
16485;DHT22;8353;47.856;12.344;2022-11-20T09:22:45;9.70;99.90
16485;DHT22;8353;47.856;12.344;2022-11-20T09:25:16;9.70;99.90
16485;DHT22;8353;47.856;12.344;2022-11-20T09:27:48;9.70;99.90
16485;DHT22;8353;47.856;12.344;2022-11-20T09:30:18;9.60;99.90
16485;DHT22;8353;47.856;12.344;2022-11-20T09:32:49;9.70;99.90
16485;DHT22;8353;47.856;12.344;2022-11-20T09:35:20;9.80;99.90
16485;DHT22;8353;47.856;12.344;2022-11-20T09:37:51;10.10;99.90
16485;DHT22;8353;47.856;12.344;2022-11-20T09:40:23;10.10;99.90
16485;DHT22;8353;47.856;12.344;2022-11-20T09:42:58;10.10;99.90
16485;DHT22;8353;47.856;12.344;2022-11-20T09:45:38;10.10;99.90
16485;DHT22;8353;47.856;12.344;2022-11-20T09:51:16;10.50;99.90
16485;DHT22;8353;47.856;12.344;2022-11-20T09:54:00;10.70;99.90
16485;DHT22;8353;47.856;12.344;2022-11-20T09:56:39;10.90;99.90
16485;DHT22;8353;47.856;12.344;2022-11-20T09:59:35;10.90;99.90
16485;DHT22;8353;47.856;12.344;2022-11-20T10:02:15;11.00;99.90
16485;DHT22;8353;47.856;12.344;2022-11-20T10:04:51;10.90;99.90
16485;DHT22;8353;47.856;12.344;2022-11-20T10:07:27;10.90;99.90
16485;DHT22;8353;47.856;12.344;2022-11-20T10:10:00;10.90;99.90
16485;DHT22;8353;47.856;12.344;2022-11-20T10:12:36;10.90;99.90
16485;DHT22;8353;47.856;12.344;2022-11-20T10:15:21;10.70;99.90
16485;DHT22;8353;47.856;12.344;2022-11-20T10:18:09;10.60;99.90
16485;DHT22;8353;47.856;12.344;2022-11-20T10:20:46;10.60;99.90
16485;DHT22;8353;47.856;12.344;2022-11-20T10:23:45;10.60;99.90
16485;DHT22;8353;47.856;12.344;2022-11-20T10:26:22;10.40;99.90
16485;DHT22;8353;47.856;12.344;2022-11-20T10:29:05;10.40;99.90
16485;DHT22;8353;47.856;12.344;2022-11-20T10:31:40;10.30;99.90
16485;DHT22;8353;47.856;12.344;2022-11-20T10:34:23;10.20;99.90
16485;DHT22;8353;47.856;12.344;2022-11-20T10:36:58;10.20;99.90
16485;DHT22;8353;47.856;12.344;2022-11-20T10:39:36;10.20;99.90
16485;DHT22;8353;47.856;12.344;2022-11-20T10:42:11;10.20;99.90
16485;DHT22;8353;47.856;12.344;2022-11-20T10:44:49;10.40;99.90
16485;DHT22;8353;47.856;12.344;2022-11-20T10:47:32;10.40;99.90
16485;DHT22;8353;47.856;12.344;2022-11-20T10:50:05;10.40;99.90
16485;DHT22;8353;47.856;12.344;2022-11-20T10:52:48;10.30;99.90
16485;DHT22;8353;47.856;12.344;2022-11-20T10:55:30;10.30;99.90
16485;DHT22;8353;47.856;12.344;2022-11-20T10:58:10;10.20;99.90
16485;DHT22;8353;47.856;12.344;2022-11-20T11:00:42;10.20;99.90
16485;DHT22;8353;47.856;12.344;2022-11-20T11:03:22;10.20;99.90
16485;DHT22;8353;47.856;12.344;2022-11-20T11:05:56;10.20;99.90
16485;DHT22;8353;47.856;12.344;2022-11-20T11:08:34;10.20;99.90
16485;DHT22;8353;47.856;12.344;2022-11-20T11:11:18;10.30;99.90
16485;DHT22;8353;47.856;12.344;2022-11-20T11:13:51;10.40;99.90
16485;DHT22;8353;47.856;12.344;2022-11-20T11:16:23;10.40;99.90
16485;DHT22;8353;47.856;12.344;2022-11-20T11:19:05;10.30;99.90
16485;DHT22;8353;47.856;12.344;2022-11-20T11:21:35;10.30;99.90
16485;DHT22;8353;47.856;12.344;2022-11-20T11:24:20;10.40;99.90
16485;DHT22;8353;47.856;12.344;2022-11-20T11:26:57;10.30;99.90
16485;DHT22;8353;47.856;12.344;2022-11-20T11:29:28;10.30;99.90
16485;DHT22;8353;47.856;12.344;2022-11-20T11:32:04;10.40;99.90
16485;DHT22;8353;47.856;12.344;2022-11-20T11:34:36;10.30;99.90
16485;DHT22;8353;47.856;12.344;2022-11-20T11:37:15;10.40;99.90
16485;DHT22;8353;47.856;12.344;2022-11-20T11:39:46;10.40;99.90
16485;DHT22;8353;47.856;12.344;2022-11-20T11:42:18;10.40;99.90
16485;DHT22;8353;47.856;12.344;2022-11-20T11:44:49;10.50;99.90
16485;DHT22;8353;47.856;12.344;2022-11-20T11:47:45;10.50;99.90
16485;DHT22;8353;47.856;12.344;2022-11-20T11:50:20;10.40;99.90
16485;DHT22;8353;47.856;12.344;2022-11-20T11:53:02;10.50;99.90
16485;DHT22;8353;47.856;12.344;2022-11-20T11:55:37;10.50;99.90
16485;DHT22;8353;47.856;12.344;2022-11-20T11:58:14;10.40;99.90
16485;DHT22;8353;47.856;12.344;2022-11-20T12:00:53;10.30;99.90
16485;DHT22;8353;47.856;12.344;2022-11-20T12:03:28;10.40;99.90
16485;DHT22;8353;47.856;12.344;2022-11-20T12:06:05;10.40;99.90
16485;DHT22;8353;47.856;12.344;2022-11-20T12:08:42;10.40;99.90
16485;DHT22;8353;47.856;12.344;2022-11-20T12:11:18;10.50;99.90
16485;DHT22;8353;47.856;12.344;2022-11-20T12:13:54;10.50;99.90
16485;DHT22;8353;47.856;12.344;2022-11-20T12:16:26;10.60;99.90
16485;DHT22;8353;47.856;12.344;2022-11-20T12:18:58;10.60;99.90
16485;DHT22;8353;47.856;12.344;2022-11-20T12:21:36;10.70;99.90
16485;DHT22;8353;47.856;12.344;2022-11-20T12:24:32;10.70;99.90
16485;DHT22;8353;47.856;12.344;2022-11-20T12:27:14;10.60;99.90
16485;DHT22;8353;47.856;12.344;2022-11-20T12:29:52;10.70;99.90
16485;DHT22;8353;47.856;12.344;2022-11-20T12:32:49;10.70;99.90
16485;DHT22;8353;47.856;12.344;2022-11-20T12:35:40;10.70;99.90
16485;DHT22;8353;47.856;12.344;2022-11-20T12:38:33;10.60;99.90
16485;DHT22;8353;47.856;12.344;2022-11-20T12:41:12;10.60;99.90
16485;DHT22;8353;47.856;12.344;2022-11-20T12:44:16;10.70;99.90
16485;DHT22;8353;47.856;12.344;2022-11-20T12:47:17;10.50;99.90
16485;DHT22;8353;47.856;12.344;2022-11-20T12:49:56;10.50;99.90
16485;DHT22;8353;47.856;12.344;2022-11-20T12:52:38;10.50;99.90
16485;DHT22;8353;47.856;12.344;2022-11-20T12:55:28;10.50;99.90
16485;DHT22;8353;47.856;12.344;2022-11-20T12:58:05;10.50;99.90
16485;DHT22;8353;47.856;12.344;2022-11-20T13:00:47;10.60;99.90
16485;DHT22;8353;47.856;12.344;2022-11-20T13:03:34;10.60;99.90
16485;DHT22;8353;47.856;12.344;2022-11-20T13:06:14;10.50;99.90
16485;DHT22;8353;47.856;12.344;2022-11-20T13:08:49;10.50;99.90
16485;DHT22;8353;47.856;12.344;2022-11-20T13:11:27;10.50;99.90
16485;DHT22;8353;47.856;12.344;2022-11-20T13:14:14;10.40;99.90
16485;DHT22;8353;47.856;12.344;2022-11-20T13:16:52;10.50;99.90
16485;DHT22;8353;47.856;12.344;2022-11-20T13:19:24;10.50;99.90
16485;DHT22;8353;47.856;12.344;2022-11-20T13:21:55;10.60;99.90
16485;DHT22;8353;47.856;12.344;2022-11-20T13:24:27;10.60;99.90
16485;DHT22;8353;47.856;12.344;2022-11-20T13:27:05;10.60;99.90
16485;DHT22;8353;47.856;12.344;2022-11-20T13:29:59;10.60;99.90
16485;DHT22;8353;47.856;12.344;2022-11-20T13:32:31;10.50;99.90
16485;DHT22;8353;47.856;12.344;2022-11-20T13:35:03;10.50;99.90
16485;DHT22;8353;47.856;12.344;2022-11-20T13:37:35;10.60;99.90
16485;DHT22;8353;47.856;12.344;2022-11-20T13:40:20;10.60;99.90
16485;DHT22;8353;47.856;12.344;2022-11-20T13:43:01;10.50;99.90
16485;DHT22;8353;47.856;12.344;2022-11-20T13:45:33;10.60;99.90
16485;DHT22;8353;47.856;12.344;2022-11-20T13:48:15;10.50;99.90
16485;DHT22;8353;47.856;12.344;2022-11-20T13:50:56;10.50;99.90
16485;DHT22;8353;47.856;12.344;2022-11-20T13:53:51;10.40;99.90
16485;DHT22;8353;47.856;12.344;2022-11-20T13:56:34;10.40;99.90
16485;DHT22;8353;47.856;12.344;2022-11-20T13:59:15;10.40;99.90
16485;DHT22;8353;47.856;12.344;2022-11-20T14:01:48;10.30;99.90
16485;DHT22;8353;47.856;12.344;2022-11-20T14:04:27;10.30;99.90
16485;DHT22;8353;47.856;12.344;2022-11-20T14:06:59;10.30;99.90
16485;DHT22;8353;47.856;12.344;2022-11-20T14:09:31;10.20;99.90
16485;DHT22;8353;47.856;12.344;2022-11-20T14:12:03;10.20;99.90
16485;DHT22;8353;47.856;12.344;2022-11-20T14:14:35;10.10;99.90
16485;DHT22;8353;47.856;12.344;2022-11-20T14:17:06;10.10;99.90
16485;DHT22;8353;47.856;12.344;2022-11-20T14:19:38;9.90;99.90
16485;DHT22;8353;47.856;12.344;2022-11-20T14:22:18;9.90;99.90
16485;DHT22;8353;47.856;12.344;2022-11-20T14:25:02;9.80;99.90
16485;DHT22;8353;47.856;12.344;2022-11-20T14:27:36;9.90;99.90
16485;DHT22;8353;47.856;12.344;2022-11-20T14:30:15;9.80;99.90
16485;DHT22;8353;47.856;12.344;2022-11-20T14:32:47;9.60;99.90
16485;DHT22;8353;47.856;12.344;2022-11-20T14:35:21;9.60;99.90
16485;DHT22;8353;47.856;12.344;2022-11-20T14:37:54;9.60;99.90
16485;DHT22;8353;47.856;12.344;2022-11-20T14:40:27;9.50;99.90
16485;DHT22;8353;47.856;12.344;2022-11-20T14:42:59;9.60;99.90
16485;DHT22;8353;47.856;12.344;2022-11-20T14:45:31;9.60;99.90
16485;DHT22;8353;47.856;12.344;2022-11-20T14:48:02;9.50;99.90
16485;DHT22;8353;47.856;12.344;2022-11-20T14:50:33;9.50;99.90
16485;DHT22;8353;47.856;12.344;2022-11-20T14:53:04;9.50;99.90
16485;DHT22;8353;47.856;12.344;2022-11-20T14:55:37;9.60;99.90
16485;DHT22;8353;47.856;12.344;2022-11-20T14:58:21;9.60;99.90
16485;DHT22;8353;47.856;12.344;2022-11-20T15:00:58;9.70;99.90
16485;DHT22;8353;47.856;12.344;2022-11-20T15:03:32;9.70;99.90
16485;DHT22;8353;47.856;12.344;2022-11-20T15:06:04;9.60;99.90
16485;DHT22;8353;47.856;12.344;2022-11-20T15:08:35;9.50;99.90
16485;DHT22;8353;47.856;12.344;2022-11-20T15:11:16;9.50;99.90
16485;DHT22;8353;47.856;12.344;2022-11-20T15:13:48;9.40;99.90
16485;DHT22;8353;47.856;12.344;2022-11-20T15:16:21;9.30;99.90
16485;DHT22;8353;47.856;12.344;2022-11-20T15:18:53;9.40;99.90
16485;DHT22;8353;47.856;12.344;2022-11-20T15:21:24;9.50;99.90
16485;DHT22;8353;47.856;12.344;2022-11-20T15:23:57;9.50;99.90
16485;DHT22;8353;47.856;12.344;2022-11-20T15:26:29;9.50;99.90
16485;DHT22;8353;47.856;12.344;2022-11-20T15:29:00;9.50;99.90
16485;DHT22;8353;47.856;12.344;2022-11-20T15:31:32;9.50;99.90
16485;DHT22;8353;47.856;12.344;2022-11-20T15:34:05;9.50;99.90
16485;DHT22;8353;47.856;12.344;2022-11-20T15:36:38;9.50;99.90
16485;DHT22;8353;47.856;12.344;2022-11-20T15:39:09;9.50;99.90
16485;DHT22;8353;47.856;12.344;2022-11-20T15:41:40;9.40;99.90
16485;DHT22;8353;47.856;12.344;2022-11-20T15:44:10;9.50;99.90
16485;DHT22;8353;47.856;12.344;2022-11-20T15:46:42;9.50;99.90
16485;DHT22;8353;47.856;12.344;2022-11-20T15:49:17;9.50;99.90
16485;DHT22;8353;47.856;12.344;2022-11-20T15:51:51;9.40;99.90
16485;DHT22;8353;47.856;12.344;2022-11-20T15:54:23;9.40;99.90
16485;DHT22;8353;47.856;12.344;2022-11-20T15:56:53;9.40;99.90
16485;DHT22;8353;47.856;12.344;2022-11-20T15:59:23;9.40;99.90
16485;DHT22;8353;47.856;12.344;2022-11-20T16:01:56;9.50;99.90
16485;DHT22;8353;47.856;12.344;2022-11-20T16:04:26;9.50;99.90
16485;DHT22;8353;47.856;12.344;2022-11-20T16:06:56;9.50;99.90
16485;DHT22;8353;47.856;12.344;2022-11-20T16:09:27;9.40;99.90
16485;DHT22;8353;47.856;12.344;2022-11-20T16:11:58;9.40;99.90
16485;DHT22;8353;47.856;12.344;2022-11-20T16:14:29;9.40;99.90
16485;DHT22;8353;47.856;12.344;2022-11-20T16:17:18;9.40;99.90
16485;DHT22;8353;47.856;12.344;2022-11-20T16:20:11;9.40;99.90
16485;DHT22;8353;47.856;12.344;2022-11-20T16:22:41;9.40;99.90
16485;DHT22;8353;47.856;12.344;2022-11-20T16:25:12;9.30;99.90
16485;DHT22;8353;47.856;12.344;2022-11-20T16:27:43;9.30;99.90